createdAt,value
2023-05-22T00:00:40.076Z,98037.25
2023-05-22T00:01:43.202Z,98038.03
2023-05-22T00:02:46.253Z,98028.19
2023-05-22T00:03:50.916Z,98038.34
2023-05-22T00:04:53.730Z,98035.66
2023-05-22T00:06:00.499Z,98031.53
2023-05-22T00:07:03.966Z,98036.97
2023-05-22T00:08:11.874Z,98035.47
2023-05-22T00:09:15.343Z,98035.94
2023-05-22T00:10:18.341Z,98031.03
2023-05-22T00:11:21.427Z,98035.31
2023-05-22T00:12:24.172Z,98032.88
2023-05-22T00:13:26.938Z,98035.47
2023-05-22T00:14:29.701Z,98026.97
2023-05-22T00:15:33.911Z,98033.87
2023-05-22T00:16:36.783Z,98043.47
2023-05-22T00:17:39.643Z,98041.16
2023-05-22T00:18:42.996Z,98045.84
2023-05-22T00:19:46.516Z,98049.78
2023-05-22T00:20:50.531Z,98051.66
2023-05-22T00:21:54.479Z,98038.97
2023-05-22T00:22:58.149Z,98045.69
2023-05-22T00:24:02.446Z,98042.13
2023-05-22T00:25:06.538Z,98045.88
2023-05-22T00:26:09.342Z,98039.41
2023-05-22T00:27:12.401Z,98047.56
2023-05-22T00:28:15.250Z,98042.66
2023-05-22T00:29:18.053Z,98044.72
2023-05-22T00:30:20.768Z,98050.25
2023-05-22T00:31:24.365Z,98050.16
2023-05-22T00:32:27.616Z,98052.94
2023-05-22T00:33:30.437Z,98051.41
2023-05-22T00:34:33.218Z,98042.91
2023-05-22T00:35:35.999Z,98046.97
2023-05-22T00:36:38.685Z,98052.50
2023-05-22T00:37:41.590Z,98042.37
2023-05-22T00:38:44.575Z,98048.00
2023-05-22T00:39:47.432Z,98051.50
2023-05-22T00:40:50.232Z,98044.59
2023-05-22T00:41:52.998Z,98041.66
2023-05-22T00:42:55.918Z,98039.63
2023-05-22T00:43:58.692Z,98049.87
2023-05-22T00:45:01.517Z,98047.13
2023-05-22T00:46:04.591Z,98038.72
2023-05-22T00:47:08.196Z,98037.28
2023-05-22T00:48:12.864Z,98037.81
2023-05-22T00:49:15.546Z,98030.91
2023-05-22T00:50:19.712Z,98039.59
2023-05-22T00:51:22.913Z,98037.19
2023-05-22T00:52:25.947Z,98033.78
2023-05-22T00:53:31.051Z,98032.34
2023-05-22T00:54:34.074Z,98034.31
2023-05-22T00:55:37.293Z,98029.41
2023-05-22T00:56:42.135Z,98032.72
2023-05-22T00:57:46.187Z,98030.66
2023-05-22T00:58:49.241Z,98035.50
2023-05-22T00:59:52.534Z,98037.09
2023-05-22T01:00:55.989Z,98039.69
2023-05-22T01:01:59.676Z,98036.91
2023-05-22T01:03:05.865Z,98039.50
2023-05-22T01:04:13.317Z,98033.16
2023-05-22T01:05:18.507Z,98033.09
2023-05-22T01:06:24.537Z,98037.19
2023-05-22T01:07:27.288Z,98032.88
2023-05-22T01:08:29.964Z,98039.12
2023-05-22T01:09:32.766Z,98029.16
2023-05-22T01:10:39.791Z,98035.94
2023-05-22T01:11:59.232Z,98037.28
2023-05-22T01:13:02.213Z,98035.88
2023-05-22T01:14:15.188Z,98033.25
2023-05-22T01:15:44.430Z,98041.81
2023-05-22T01:17:06.564Z,98042.47
2023-05-22T01:18:25.338Z,98043.63
2023-05-22T01:20:01.767Z,98035.72
2023-05-22T01:21:22.527Z,98031.44
2023-05-22T01:22:51.396Z,98032.78
2023-05-22T01:24:42.186Z,98032.97
2023-05-22T01:25:54.677Z,98025.09
2023-05-22T01:27:43.484Z,98034.69
2023-05-22T01:29:08.866Z,98027.63
2023-05-22T01:30:24.417Z,98028.25
2023-05-22T01:31:30.629Z,98028.03
2023-05-22T01:32:36.783Z,98026.81
2023-05-22T01:33:46.195Z,98023.31
2023-05-22T01:34:53.653Z,98028.41
2023-05-22T01:36:00.183Z,98027.69
2023-05-22T01:37:04.330Z,98024.91
2023-05-22T01:38:09.884Z,98026.37
2023-05-22T01:39:13.237Z,98024.56
2023-05-22T01:40:17.271Z,98020.37
2023-05-22T01:41:21.713Z,98019.09
2023-05-22T01:42:24.921Z,98020.16
2023-05-22T01:43:27.817Z,98016.41
2023-05-22T01:44:30.534Z,98020.88
2023-05-22T01:45:33.197Z,98022.78
2023-05-22T01:46:36.431Z,98020.06
2023-05-22T01:47:39.222Z,98021.94
2023-05-22T01:48:41.961Z,98016.25
2023-05-22T01:49:47.430Z,98012.75
2023-05-22T01:50:53.627Z,98019.63
2023-05-22T01:52:03.042Z,98011.22
2023-05-22T01:53:23.513Z,98007.28
2023-05-22T01:54:53.957Z,98008.09
2023-05-22T01:56:14.839Z,98010.13
2023-05-22T01:57:25.238Z,98008.44
2023-05-22T01:58:35.142Z,98004.06
2023-05-22T01:59:56.458Z,97998.75
2023-05-22T02:01:03.824Z,97995.44
2023-05-22T02:02:12.112Z,97987.75
2023-05-22T02:03:20.408Z,97991.06
2023-05-22T02:04:24.713Z,98001.47
2023-05-22T02:05:30.309Z,97995.91
2023-05-22T02:06:34.010Z,98000.50
2023-05-22T02:07:38.823Z,97989.94
2023-05-22T02:08:42.572Z,97997.63
2023-05-22T02:09:47.978Z,97993.50
2023-05-22T02:10:52.832Z,97993.50
2023-05-22T02:11:56.291Z,97985.28
2023-05-22T02:12:59.060Z,97990.66
2023-05-22T02:14:02.422Z,97992.00
2023-05-22T02:15:08.655Z,97989.22
2023-05-22T02:16:12.454Z,97993.16
2023-05-22T02:17:15.442Z,97992.44
2023-05-22T02:18:18.451Z,97992.97
2023-05-22T02:19:21.309Z,97992.34
2023-05-22T02:20:24.055Z,97992.97
2023-05-22T02:21:26.833Z,97991.63
2023-05-22T02:22:29.607Z,97991.09
2023-05-22T02:23:32.620Z,97997.28
2023-05-22T02:24:37.141Z,97998.00
2023-05-22T02:25:39.886Z,97986.72
2023-05-22T02:26:43.381Z,97990.03
2023-05-22T02:27:48.185Z,97987.63
2023-05-22T02:28:51.188Z,97991.63
2023-05-22T02:29:54.159Z,97984.03
2023-05-22T02:30:57.053Z,97990.84
2023-05-22T02:31:59.925Z,97993.41
2023-05-22T02:33:06.138Z,97984.38
2023-05-22T02:34:08.900Z,97992.62
2023-05-22T02:35:11.732Z,97993.94
2023-05-22T02:36:14.732Z,97993.22
2023-05-22T02:37:17.669Z,97987.25
2023-05-22T02:38:20.567Z,97982.25
2023-05-22T02:39:23.400Z,97984.19
2023-05-22T02:40:26.225Z,97985.62
2023-05-22T02:41:29.101Z,97984.19
2023-05-22T02:42:32.050Z,97982.06
2023-05-22T02:43:34.827Z,97986.88
2023-05-22T02:44:37.536Z,97994.50
2023-05-22T02:45:40.264Z,97984.56
2023-05-22T02:46:43.036Z,97986.53
2023-05-22T02:47:45.871Z,97988.59
2023-05-22T02:48:48.705Z,97984.38
2023-05-22T02:49:52.254Z,97985.81
2023-05-22T02:50:55.227Z,97987.09
2023-05-22T02:51:58.097Z,97986.72
2023-05-22T02:53:00.974Z,97986.00
2023-05-22T02:54:03.906Z,97986.63
2023-05-22T02:55:08.389Z,97988.78
2023-05-22T02:56:12.221Z,97986.72
2023-05-22T02:57:15.235Z,97989.91
2023-05-22T02:58:18.053Z,97991.91
2023-05-22T02:59:20.956Z,97977.75
2023-05-22T03:00:23.827Z,97987.78
2023-05-22T03:01:26.743Z,97987.53
2023-05-22T03:02:30.295Z,97983.16
2023-05-22T03:03:34.288Z,97981.59
2023-05-22T03:04:39.062Z,97976.06
2023-05-22T03:05:41.762Z,97978.81
2023-05-22T03:06:46.796Z,97979.75
2023-05-22T03:07:49.601Z,97971.25
2023-05-22T03:08:53.355Z,97978.06
2023-05-22T03:09:56.240Z,97974.81
2023-05-22T03:11:00.564Z,97978.31
2023-05-22T03:12:03.271Z,97983.16
2023-05-22T03:13:06.077Z,97975.44
2023-05-22T03:14:08.942Z,97978.06
2023-05-22T03:15:12.035Z,97984.31
2023-05-22T03:16:14.796Z,97984.38
2023-05-22T03:17:17.664Z,97981.44
2023-05-22T03:18:20.598Z,97982.69
2023-05-22T03:19:23.484Z,97976.34
2023-05-22T03:20:26.256Z,97973.50
2023-05-22T03:21:29.037Z,97972.78
2023-05-22T03:22:31.865Z,97978.31
2023-05-22T03:23:35.003Z,97981.97
2023-05-22T03:24:37.719Z,97980.53
2023-05-22T03:25:40.659Z,97981.72
2023-05-22T03:26:44.137Z,97972.31
2023-05-22T03:27:46.851Z,97973.03
2023-05-22T03:28:51.092Z,97972.66
2023-05-22T03:29:54.006Z,97976.59
2023-05-22T03:30:56.715Z,97978.66
2023-05-22T03:32:00.101Z,97979.53
2023-05-22T03:33:02.875Z,97976.44
2023-05-22T03:34:06.249Z,97966.84
2023-05-22T03:35:09.828Z,97972.47
2023-05-22T03:36:12.507Z,97968.91
2023-05-22T03:37:15.191Z,97973.56
2023-05-22T03:38:17.900Z,97970.97
2023-05-22T03:39:20.581Z,97971.75
2023-05-22T03:40:23.294Z,97964.31
2023-05-22T03:41:25.973Z,97973.28
2023-05-22T03:42:28.864Z,97971.22
2023-05-22T03:43:31.615Z,97965.13
2023-05-22T03:44:34.274Z,97967.19
2023-05-22T03:45:37.083Z,97974.31
2023-05-22T03:46:39.836Z,97976.09
2023-05-22T03:47:42.624Z,97968.88
2023-05-22T03:48:45.348Z,97968.88
2023-05-22T03:49:48.218Z,97961.44
2023-05-22T03:50:51.264Z,97963.56
2023-05-22T03:51:53.986Z,97959.13
2023-05-22T03:52:56.753Z,97962.69
2023-05-22T03:53:59.755Z,97963.78
2023-05-22T03:55:02.577Z,97964.31
2023-05-22T03:56:05.956Z,97965.53
2023-05-22T03:57:08.702Z,97960.88
2023-05-22T03:58:11.440Z,97969.75
2023-05-22T03:59:14.252Z,97963.56
2023-05-22T04:00:19.920Z,97967.53
2023-05-22T04:01:23.815Z,97963.06
2023-05-22T04:02:26.683Z,97963.41
2023-05-22T04:03:29.589Z,97962.16
2023-05-22T04:04:34.338Z,97955.25
2023-05-22T04:05:37.202Z,97968.41
2023-05-22T04:06:43.478Z,97967.13
2023-05-22T04:07:46.486Z,97961.44
2023-05-22T04:08:49.756Z,97964.22
2023-05-22T04:09:52.477Z,97961.69
2023-05-22T04:10:55.521Z,97966.34
2023-05-22T04:11:59.020Z,97966.34
2023-05-22T04:13:01.872Z,97971.66
2023-05-22T04:14:04.718Z,97973.78
2023-05-22T04:15:08.196Z,97975.06
2023-05-22T04:16:11.218Z,97964.75
2023-05-22T04:17:13.935Z,97975.69
2023-05-22T04:18:16.715Z,97967.91
2023-05-22T04:19:19.579Z,97973.25
2023-05-22T04:20:22.522Z,97971.97
2023-05-22T04:21:25.310Z,97972.44
2023-05-22T04:22:31.047Z,97969.59
2023-05-22T04:23:33.742Z,97974.50
2023-05-22T04:24:40.018Z,97967.06
2023-05-22T04:25:42.944Z,97969.28
2023-05-22T04:26:45.740Z,97967.13
2023-05-22T04:27:48.623Z,97974.22
2023-05-22T04:28:51.338Z,97973.31
2023-05-22T04:29:55.061Z,97964.25
2023-05-22T04:30:57.886Z,97968.97
2023-05-22T04:32:00.712Z,97967.19
2023-05-22T04:33:05.846Z,97968.44
2023-05-22T04:34:15.407Z,97961.47
2023-05-22T04:35:18.734Z,97963.22
2023-05-22T04:36:26.490Z,97967.34
2023-05-22T04:37:31.941Z,97958.94
2023-05-22T04:38:38.053Z,97960.69
2023-05-22T04:39:41.393Z,97960.59
2023-05-22T04:40:44.806Z,97967.75
2023-05-22T04:41:47.472Z,97966.56
2023-05-22T04:42:50.477Z,97972.91
2023-05-22T04:43:54.230Z,97968.06
2023-05-22T04:44:58.318Z,97960.47
2023-05-22T04:46:01.375Z,97960.06
2023-05-22T04:47:06.920Z,97970.44
2023-05-22T04:48:12.393Z,97971.09
2023-05-22T04:49:15.141Z,97980.78
2023-05-22T04:50:18.041Z,97979.44
2023-05-22T04:51:23.311Z,97976.47
2023-05-22T04:52:29.138Z,97982.19
2023-05-22T04:53:33.639Z,97987.03
2023-05-22T04:54:36.399Z,97983.63
2023-05-22T04:55:40.089Z,97978.06
2023-05-22T04:56:42.782Z,97983.63
2023-05-22T04:57:45.545Z,97983.63
2023-05-22T04:58:50.306Z,97988.47
2023-05-22T04:59:54.619Z,97986.94
2023-05-22T05:00:59.645Z,97993.84
2023-05-22T05:02:02.460Z,97987.59
2023-05-22T05:03:08.276Z,97996.56
2023-05-22T05:04:11.733Z,97990.19
2023-05-22T05:05:15.969Z,98000.59
2023-05-22T05:06:21.820Z,97990.75
2023-05-22T05:07:25.365Z,97997.81
2023-05-22T05:08:28.184Z,97992.97
2023-05-22T05:09:30.905Z,97997.97
2023-05-22T05:10:33.634Z,98001.53
2023-05-22T05:11:36.395Z,98002.91
2023-05-22T05:12:39.090Z,97995.69
2023-05-22T05:13:43.110Z,97994.16
2023-05-22T05:14:45.836Z,97999.62
2023-05-22T05:15:48.477Z,97999.56
2023-05-22T05:16:54.953Z,98002.41
2023-05-22T05:17:57.840Z,98008.75
2023-05-22T05:19:01.546Z,98005.25
2023-05-22T05:20:07.362Z,98008.91
2023-05-22T05:21:10.290Z,98008.28
2023-05-22T05:22:12.941Z,98009.81
2023-05-22T05:23:15.762Z,97997.34
2023-05-22T05:24:18.625Z,98008.56
2023-05-22T05:25:21.377Z,98010.13
2023-05-22T05:26:24.403Z,98010.38
2023-05-22T05:27:27.320Z,98010.63
2023-05-22T05:28:30.077Z,98011.47
2023-05-22T05:29:32.837Z,98021.53
2023-05-22T05:30:35.530Z,98019.84
2023-05-22T05:31:38.327Z,98028.41
2023-05-22T05:32:41.745Z,98022.06
2023-05-22T05:33:44.463Z,98022.00
2023-05-22T05:34:47.244Z,98019.13
2023-05-22T05:35:50.653Z,98026.19
2023-05-22T05:36:53.424Z,98026.34
2023-05-22T05:37:56.148Z,98020.97
2023-05-22T05:38:59.188Z,98017.47
2023-05-22T05:40:01.832Z,98016.09
2023-05-22T05:41:04.569Z,98023.75
2023-05-22T05:42:07.389Z,98028.94
2023-05-22T05:43:10.221Z,98018.84
2023-05-22T05:44:13.109Z,98033.25
2023-05-22T05:45:16.070Z,98031.88
2023-05-22T05:46:19.722Z,98024.91
2023-05-22T05:47:24.520Z,98027.13
2023-05-22T05:48:27.369Z,98028.47
2023-05-22T05:49:30.201Z,98022.06
2023-05-22T05:50:32.882Z,98033.09
2023-05-22T05:51:36.423Z,98037.38
2023-05-22T05:52:39.245Z,98035.47
2023-05-22T05:53:42.100Z,98039.03
2023-05-22T05:54:47.607Z,98028.78
2023-05-22T05:55:50.364Z,98038.72
2023-05-22T05:56:53.180Z,98033.09
2023-05-22T05:57:56.004Z,98033.16
2023-05-22T05:58:58.788Z,98027.53
2023-05-22T06:00:01.647Z,98027.47
2023-05-22T06:01:04.747Z,98033.16
2023-05-22T06:02:07.738Z,98027.81
2023-05-22T06:03:10.682Z,98034.84
2023-05-22T06:04:14.065Z,98026.19
2023-05-22T06:05:19.456Z,98032.31
2023-05-22T06:06:26.432Z,98035.09
2023-05-22T06:07:29.895Z,98032.19
2023-05-22T06:08:32.865Z,98031.41
2023-05-22T06:09:36.491Z,98025.19
2023-05-22T06:10:39.881Z,98024.63
2023-05-22T06:11:42.752Z,98026.81
2023-05-22T06:12:45.537Z,98017.06
2023-05-22T06:13:48.426Z,98028.13
2023-05-22T06:14:51.135Z,98021.91
2023-05-22T06:15:54.243Z,98018.59
2023-05-22T06:16:57.570Z,98010.47
2023-05-22T06:18:02.646Z,98016.88
2023-05-22T06:19:05.460Z,98021.44
2023-05-22T06:20:09.435Z,98022.44
2023-05-22T06:21:12.601Z,98018.59
2023-05-22T06:22:15.423Z,98015.47
2023-05-22T06:23:18.204Z,98013.28
2023-05-22T06:24:20.937Z,98014.66
2023-05-22T06:25:26.296Z,98020.97
2023-05-22T06:26:28.983Z,98024.53
2023-05-22T06:27:32.264Z,98018.75
2023-05-22T06:28:34.974Z,98022.88
2023-05-22T06:29:37.796Z,98026.44
2023-05-22T06:30:40.817Z,98034.16
2023-05-22T06:31:44.081Z,98032.78
2023-05-22T06:32:47.007Z,98033.84
2023-05-22T06:33:50.091Z,98034.00
2023-05-22T06:34:53.051Z,98036.84
2023-05-22T06:35:55.754Z,98043.28
2023-05-22T06:36:58.406Z,98044.94
2023-05-22T06:38:01.149Z,98037.44
2023-05-22T06:39:03.963Z,98043.22
2023-05-22T06:40:07.846Z,98042.72
2023-05-22T06:41:10.839Z,98043.63
2023-05-22T06:42:13.587Z,98050.19
2023-05-22T06:43:16.579Z,98046.44
2023-05-22T06:44:19.287Z,98053.00
2023-05-22T06:45:22.110Z,98042.09
2023-05-22T06:46:26.153Z,98045.09
2023-05-22T06:47:29.382Z,98041.25
2023-05-22T06:48:35.457Z,98033.91
2023-05-22T06:49:38.034Z,98037.25
2023-05-22T06:50:41.110Z,98032.34
2023-05-22T06:51:44.272Z,98034.66
2023-05-22T06:52:47.039Z,98042.91
2023-05-22T06:53:49.646Z,98046.22
2023-05-22T06:54:52.752Z,98042.00
2023-05-22T06:55:56.019Z,98051.22
2023-05-22T06:56:59.691Z,98046.16
2023-05-22T06:58:02.543Z,98053.62
2023-05-22T06:59:06.325Z,98045.31
2023-05-22T07:00:12.155Z,98052.97
2023-05-22T07:01:14.948Z,98048.09
2023-05-22T07:02:17.656Z,98046.81
2023-05-22T07:03:20.513Z,98047.41
2023-05-22T07:04:23.297Z,98046.16
2023-05-22T07:05:26.140Z,98049.97
2023-05-22T07:06:29.336Z,98049.84
2023-05-22T07:07:32.303Z,98048.09
2023-05-22T07:08:35.159Z,98057.47
2023-05-22T07:09:37.993Z,98047.47
2023-05-22T07:10:41.427Z,98057.72
2023-05-22T07:11:44.412Z,98057.84
2023-05-22T07:12:47.188Z,98063.25
2023-05-22T07:13:49.922Z,98063.69
2023-05-22T07:14:53.379Z,98066.34
2023-05-22T07:15:56.188Z,98071.22
2023-05-22T07:16:59.031Z,98060.47
2023-05-22T07:18:02.078Z,98057.94
2023-05-22T07:19:04.995Z,98063.88
2023-05-22T07:20:10.939Z,98056.59
2023-05-22T07:21:13.553Z,98052.97
2023-05-22T07:22:16.408Z,98054.81
2023-05-22T07:23:19.043Z,98048.53
2023-05-22T07:24:21.798Z,98047.63
2023-05-22T07:25:24.546Z,98043.94
2023-05-22T07:26:30.032Z,98045.91
2023-05-22T07:27:32.895Z,98043.06
2023-05-22T07:28:36.252Z,98037.94
2023-05-22T07:29:39.127Z,98036.63
2023-05-22T07:30:42.323Z,98029.38
2023-05-22T07:31:45.088Z,98023.31
2023-05-22T07:32:48.863Z,98021.94
2023-05-22T07:33:51.561Z,98016.59
2023-05-22T07:34:54.312Z,98014.06
2023-05-22T07:35:57.441Z,98020.16
2023-05-22T07:37:01.638Z,98035.66
2023-05-22T07:38:04.444Z,98035.31
2023-05-22T07:39:07.176Z,98040.00
2023-05-22T07:40:10.485Z,98038.91
2023-05-22T07:41:13.706Z,98042.03
2023-05-22T07:42:16.521Z,98038.09
2023-05-22T07:43:19.247Z,98037.59
2023-05-22T07:44:22.029Z,98036.22
2023-05-22T07:45:24.754Z,98035.25
2023-05-22T07:46:27.595Z,98032.69
2023-05-22T07:47:30.425Z,98049.00
2023-05-22T07:48:33.267Z,98049.22
2023-05-22T07:49:36.503Z,98056.22
2023-05-22T07:50:39.263Z,98050.56
2023-05-22T07:51:42.146Z,98060.00
2023-05-22T07:52:45.114Z,98052.97
2023-05-22T07:53:47.860Z,98045.34
2023-05-22T07:54:50.964Z,98047.41
2023-05-22T07:55:53.655Z,98043.56
2023-05-22T07:56:56.647Z,98046.81
2023-05-22T07:57:59.363Z,98041.25
2023-05-22T07:59:02.039Z,98036.69
2023-05-22T08:00:14.146Z,98041.38
2023-05-22T08:01:17.322Z,98048.75
2023-05-22T08:02:20.096Z,98047.13
2023-05-22T08:03:24.260Z,98041.84
2023-05-22T08:04:27.940Z,98045.69
2023-05-22T08:05:31.011Z,98043.94
2023-05-22T08:06:35.413Z,98049.19
2023-05-22T08:07:38.508Z,98041.84
2023-05-22T08:08:41.291Z,98047.69
2023-05-22T08:09:46.360Z,98046.59
2023-05-22T08:11:03.005Z,98042.09
2023-05-22T08:12:07.886Z,98047.47
2023-05-22T08:13:12.697Z,98036.72
2023-05-22T08:14:15.621Z,98036.31
2023-05-22T08:15:18.380Z,98039.31
2023-05-22T08:16:21.382Z,98043.84
2023-05-22T08:17:24.186Z,98050.41
2023-05-22T08:18:28.625Z,98054.94
2023-05-22T08:19:32.207Z,98049.66
2023-05-22T08:20:35.005Z,98043.88
2023-05-22T08:21:37.984Z,98051.41
2023-05-22T08:22:41.990Z,98039.81
2023-05-22T08:23:44.739Z,98039.97
2023-05-22T08:24:47.571Z,98040.19
2023-05-22T08:25:50.470Z,98030.00
2023-05-22T08:26:53.296Z,98038.66
2023-05-22T08:27:56.106Z,98041.09
2023-05-22T08:28:58.894Z,98045.59
2023-05-22T08:30:04.155Z,98048.06
2023-05-22T08:31:07.176Z,98041.97
2023-05-22T08:32:10.163Z,98038.81
2023-05-22T08:33:13.132Z,98034.78
2023-05-22T08:34:15.989Z,98041.31
2023-05-22T08:35:18.702Z,98042.03
2023-05-22T08:36:23.528Z,98029.47
2023-05-22T08:37:26.540Z,98030.34
2023-05-22T08:38:29.316Z,98031.22
2023-05-22T08:39:32.031Z,98038.88
2023-05-22T08:40:40.589Z,98029.78
2023-05-22T08:41:45.453Z,98032.72
2023-05-22T08:42:48.732Z,98029.63
2023-05-22T08:43:51.630Z,98038.28
2023-05-22T08:44:55.664Z,98036.47
2023-05-22T08:46:04.114Z,98039.38
2023-05-22T08:47:11.563Z,98040.97
2023-05-22T08:48:16.697Z,98033.50
2023-05-22T08:49:23.676Z,98035.22
2023-05-22T08:50:27.533Z,98035.75
2023-05-22T08:51:34.440Z,98043.44
2023-05-22T08:52:48.175Z,98036.84
2023-05-22T08:53:52.735Z,98036.72
2023-05-22T08:54:56.160Z,98036.25
2023-05-22T08:55:59.877Z,98044.66
2023-05-22T08:57:03.189Z,98031.22
2023-05-22T08:58:06.525Z,98034.66
2023-05-22T08:59:09.375Z,98040.22
2023-05-22T09:00:12.769Z,98045.72
2023-05-22T09:01:16.667Z,98044.41
2023-05-22T09:02:20.308Z,98045.72
2023-05-22T09:03:23.764Z,98042.87
2023-05-22T09:04:28.623Z,98045.69
2023-05-22T09:05:31.732Z,98041.47
2023-05-22T09:06:34.546Z,98044.31
2023-05-22T09:07:39.426Z,98040.19
2023-05-22T09:08:43.001Z,98042.75
2023-05-22T09:09:45.863Z,98038.22
2023-05-22T09:10:48.872Z,98043.94
2023-05-22T09:11:51.582Z,98044.72
2023-05-22T09:13:09.124Z,98039.81
2023-05-22T09:14:12.675Z,98037.03
2023-05-22T09:15:16.980Z,98033.66
2023-05-22T09:16:20.921Z,98033.13
2023-05-22T09:17:23.652Z,98033.47
2023-05-22T09:18:30.319Z,98035.19
2023-05-22T09:19:33.218Z,98034.78
2023-05-22T09:20:38.630Z,98033.63
2023-05-22T09:21:42.228Z,98033.75
2023-05-22T09:22:47.673Z,98036.13
2023-05-22T09:23:51.208Z,98035.06
2023-05-22T09:24:54.602Z,98029.66
2023-05-22T09:25:58.858Z,98027.03
2023-05-22T09:27:04.377Z,98032.13
2023-05-22T09:28:07.651Z,98024.53
2023-05-22T09:29:10.434Z,98034.56
2023-05-22T09:30:19.459Z,98036.06
2023-05-22T09:31:22.345Z,98034.87
2023-05-22T09:32:25.446Z,98035.03
2023-05-22T09:33:29.762Z,98030.84
2023-05-22T09:34:33.105Z,98032.31
2023-05-22T09:35:39.335Z,98031.56
2023-05-22T09:36:42.746Z,98034.34
2023-05-22T09:37:45.568Z,98026.63
2023-05-22T09:38:48.263Z,98023.88
2023-05-22T09:39:53.287Z,98031.03
2023-05-22T09:40:56.806Z,98029.56
2023-05-22T09:42:01.735Z,98029.09
2023-05-22T09:43:11.561Z,98035.47
2023-05-22T09:44:16.323Z,98029.91
2023-05-22T09:45:26.701Z,98031.28
2023-05-22T09:46:29.892Z,98035.44
2023-05-22T09:47:34.417Z,98031.31
2023-05-22T09:48:37.535Z,98031.38
2023-05-22T09:49:44.946Z,98029.41
2023-05-22T09:50:51.359Z,98025.34
2023-05-22T09:51:55.522Z,98026.13
2023-05-22T09:53:04.154Z,98023.25
2023-05-22T09:54:09.569Z,98029.59
2023-05-22T09:55:14.364Z,98031.81
2023-05-22T09:56:27.469Z,98022.72
2023-05-22T09:57:45.609Z,98026.84
2023-05-22T09:58:48.348Z,98039.34
2023-05-22T09:59:55.188Z,98023.94
2023-05-22T10:00:59.467Z,98022.56
2023-05-22T10:02:03.104Z,98021.78
2023-05-22T10:03:12.277Z,98024.53
2023-05-22T10:04:19.020Z,98025.19
2023-05-22T10:05:23.155Z,98025.88
2023-05-22T10:06:27.564Z,98025.28
2023-05-22T10:07:36.647Z,98023.94
2023-05-22T10:08:44.822Z,98028.81
2023-05-22T10:09:53.005Z,98025.28
2023-05-22T10:10:56.355Z,98029.50
2023-05-22T10:12:04.390Z,98021.59
2023-05-22T10:13:08.013Z,98024.22
2023-05-22T10:14:11.304Z,98024.06
2023-05-22T10:15:14.331Z,98019.84
2023-05-22T10:16:17.607Z,98021.31
2023-05-22T10:17:20.742Z,98021.97
2023-05-22T10:18:23.810Z,98013.53
2023-05-22T10:19:29.205Z,98013.56
2023-05-22T10:20:31.956Z,98018.59
2023-05-22T10:21:37.197Z,98008.81
2023-05-22T10:22:40.650Z,98006.97
2023-05-22T10:23:44.648Z,98011.37
2023-05-22T10:24:51.059Z,98007.03
2023-05-22T10:25:55.280Z,98013.28
2023-05-22T10:26:58.332Z,98009.00
2023-05-22T10:28:01.363Z,98008.19
2023-05-22T10:29:33.876Z,98004.63
2023-05-22T10:30:36.598Z,98001.81
2023-05-22T10:31:50.818Z,97996.19
2023-05-22T10:33:22.136Z,98010.88
2023-05-22T10:34:34.995Z,97996.94
2023-05-22T10:35:43.826Z,97995.09
2023-05-22T10:37:16.553Z,98000.38
2023-05-22T10:38:50.835Z,97999.13
2023-05-22T10:40:07.755Z,97996.44
2023-05-22T10:41:11.708Z,97995.13
2023-05-22T10:42:15.046Z,97994.47
2023-05-22T10:43:17.864Z,97995.87
2023-05-22T10:44:22.475Z,97991.09
2023-05-22T10:45:29.386Z,97991.78
2023-05-22T10:46:36.631Z,97993.22
2023-05-22T10:47:39.607Z,97988.16
2023-05-22T10:48:47.827Z,97986.16
2023-05-22T10:50:07.695Z,97991.88
2023-05-22T10:51:12.733Z,97986.28
2023-05-22T10:52:18.663Z,97987.69
2023-05-22T10:53:26.216Z,97990.53
2023-05-22T10:54:43.390Z,97993.38
2023-05-22T10:55:49.586Z,97986.44
2023-05-22T10:57:10.474Z,97985.00
2023-05-22T10:58:14.012Z,97982.81
2023-05-22T10:59:16.759Z,97986.38
2023-05-22T11:00:21.578Z,97983.59
2023-05-22T11:01:27.756Z,97980.13
2023-05-22T11:02:31.967Z,97982.22
2023-05-22T11:04:13.158Z,97975.91
2023-05-22T11:05:19.003Z,97980.78
2023-05-22T11:07:19.133Z,97976.59
2023-05-22T11:08:27.510Z,97970.22
2023-05-22T11:09:46.043Z,97978.06
2023-05-22T11:10:57.401Z,97975.28
2023-05-22T11:12:19.681Z,97972.47
2023-05-22T11:13:29.058Z,97968.25
2023-05-22T11:14:32.444Z,97973.91
2023-05-22T11:15:35.637Z,97964.06
2023-05-22T11:16:39.228Z,97969.00
2023-05-22T11:17:45.305Z,97956.97
2023-05-22T11:18:48.365Z,97965.41
2023-05-22T11:20:08.404Z,97958.34
2023-05-22T11:21:12.271Z,97964.03
2023-05-22T11:22:18.072Z,97965.37
2023-05-22T11:23:20.935Z,97965.31
2023-05-22T11:24:23.917Z,97963.25
2023-05-22T11:25:28.688Z,97954.75
2023-05-22T11:26:31.543Z,97957.53
2023-05-22T11:27:35.696Z,97960.34
2023-05-22T11:28:39.098Z,97955.44
2023-05-22T11:29:44.945Z,97962.47
2023-05-22T11:30:48.169Z,97963.84
2023-05-22T11:31:51.108Z,97957.53
2023-05-22T11:32:54.152Z,97958.97
2023-05-22T11:33:57.066Z,97957.56
2023-05-22T11:35:00.565Z,97953.38
2023-05-22T11:36:03.659Z,97955.53
2023-05-22T11:37:06.560Z,97954.84
2023-05-22T11:38:09.848Z,97944.22
2023-05-22T11:39:15.428Z,97954.03
2023-05-22T11:40:24.825Z,97956.09
2023-05-22T11:41:34.152Z,97952.59
2023-05-22T11:42:37.928Z,97957.56
2023-05-22T11:43:43.336Z,97947.03
2023-05-22T11:44:46.546Z,97947.09
2023-05-22T11:45:49.397Z,97947.09
2023-05-22T11:46:52.564Z,97944.28
2023-05-22T11:47:56.029Z,97944.31
2023-05-22T11:48:58.925Z,97940.81
2023-05-22T11:50:02.141Z,97946.47
2023-05-22T11:51:05.409Z,97951.41
2023-05-22T11:52:08.746Z,97952.81
2023-05-22T11:53:11.988Z,97943.63
2023-05-22T11:54:18.315Z,97942.22
2023-05-22T11:55:21.115Z,97942.91
2023-05-22T11:56:24.140Z,97942.22
2023-05-22T11:57:27.401Z,97940.81
2023-05-22T11:58:31.032Z,97950.72
2023-05-22T11:59:33.965Z,97946.47
2023-05-22T12:00:36.947Z,97947.88
2023-05-22T12:01:39.704Z,97947.16
2023-05-22T12:02:47.946Z,97941.56
2023-05-22T12:03:51.323Z,97938.00
2023-05-22T12:04:56.073Z,97949.97
2023-05-22T12:05:59.425Z,97945.03
2023-05-22T12:07:02.310Z,97946.44
2023-05-22T12:08:05.322Z,97940.09
2023-05-22T12:09:09.072Z,97944.34
2023-05-22T12:10:14.251Z,97947.88
2023-05-22T12:11:16.943Z,97940.12
2023-05-22T12:12:22.475Z,97941.56
2023-05-22T12:13:27.436Z,97933.09
2023-05-22T12:14:33.904Z,97938.75
2023-05-22T12:15:36.639Z,97931.03
2023-05-22T12:16:39.822Z,97933.13
2023-05-22T12:17:43.289Z,97924.66
2023-05-22T12:18:46.456Z,97928.19
2023-05-22T12:19:49.252Z,97931.72
2023-05-22T12:20:54.817Z,97932.41
2023-05-22T12:21:57.581Z,97928.91
2023-05-22T12:23:00.428Z,97931.00
2023-05-22T12:24:05.906Z,97933.13
2023-05-22T12:25:16.661Z,97926.81
2023-05-22T12:26:19.663Z,97923.25
2023-05-22T12:27:22.549Z,97922.56
2023-05-22T12:28:25.597Z,97918.34
2023-05-22T12:29:28.425Z,97914.81
2023-05-22T12:30:41.274Z,97919.00
2023-05-22T12:31:46.975Z,97914.06
2023-05-22T12:32:50.857Z,97913.34
2023-05-22T12:33:57.163Z,97914.03
2023-05-22T12:35:00.234Z,97919.69
2023-05-22T12:36:08.229Z,97910.53
2023-05-22T12:37:28.405Z,97913.34
2023-05-22T12:38:34.018Z,97916.19
2023-05-22T12:39:38.279Z,97911.28
2023-05-22T12:40:41.242Z,97912.69
2023-05-22T12:41:45.743Z,97905.63
2023-05-22T12:42:49.046Z,97900.72